sensor_id;sensor_type;location;lat;lon;timestamp;P1;durP1;ratioP1;P2;durP2;ratioP2
9138;SDS011;4604;48.616;9.548;2023-02-15T00:00:26;16.87;;;7.10;;
9138;SDS011;4604;48.616;9.548;2023-02-15T00:02:53;15.10;;;7.07;;
9138;SDS011;4604;48.616;9.548;2023-02-15T00:05:19;8.93;;;5.13;;
9138;SDS011;4604;48.616;9.548;2023-02-15T00:07:46;11.40;;;6.40;;
9138;SDS011;4604;48.616;9.548;2023-02-15T00:10:12;10.57;;;6.53;;
9138;SDS011;4604;48.616;9.548;2023-02-15T00:12:40;11.07;;;5.90;;
9138;SDS011;4604;48.616;9.548;2023-02-15T00:15:08;11.27;;;6.10;;
9138;SDS011;4604;48.616;9.548;2023-02-15T00:17:36;13.00;;;6.50;;
9138;SDS011;4604;48.616;9.548;2023-02-15T00:20:03;10.23;;;5.37;;
9138;SDS011;4604;48.616;9.548;2023-02-15T00:22:30;11.17;;;5.60;;
9138;SDS011;4604;48.616;9.548;2023-02-15T00:24:56;8.97;;;5.23;;
9138;SDS011;4604;48.616;9.548;2023-02-15T00:27:23;8.10;;;4.97;;
9138;SDS011;4604;48.616;9.548;2023-02-15T00:29:51;8.40;;;5.27;;
9138;SDS011;4604;48.616;9.548;2023-02-15T00:32:18;9.37;;;5.30;;
9138;SDS011;4604;48.616;9.548;2023-02-15T00:34:45;9.60;;;5.53;;
9138;SDS011;4604;48.616;9.548;2023-02-15T00:37:11;9.30;;;5.47;;
9138;SDS011;4604;48.616;9.548;2023-02-15T00:39:38;10.17;;;4.93;;
9138;SDS011;4604;48.616;9.548;2023-02-15T00:42:04;12.03;;;5.77;;
9138;SDS011;4604;48.616;9.548;2023-02-15T00:44:31;8.73;;;4.90;;
9138;SDS011;4604;48.616;9.548;2023-02-15T00:46:59;10.77;;;5.90;;
9138;SDS011;4604;48.616;9.548;2023-02-15T00:49:25;12.13;;;6.47;;
9138;SDS011;4604;48.616;9.548;2023-02-15T00:51:52;10.63;;;5.87;;
9138;SDS011;4604;48.616;9.548;2023-02-15T00:54:19;8.33;;;5.47;;
9138;SDS011;4604;48.616;9.548;2023-02-15T00:56:45;10.37;;;5.33;;
9138;SDS011;4604;48.616;9.548;2023-02-15T00:59:12;9.97;;;5.10;;
9138;SDS011;4604;48.616;9.548;2023-02-15T01:01:39;8.50;;;5.17;;
9138;SDS011;4604;48.616;9.548;2023-02-15T01:04:07;8.47;;;5.60;;
9138;SDS011;4604;48.616;9.548;2023-02-15T01:06:33;7.67;;;5.00;;
9138;SDS011;4604;48.616;9.548;2023-02-15T01:09:00;12.13;;;6.23;;
9138;SDS011;4604;48.616;9.548;2023-02-15T01:11:27;8.70;;;5.40;;
9138;SDS011;4604;48.616;9.548;2023-02-15T01:13:54;10.23;;;5.70;;
9138;SDS011;4604;48.616;9.548;2023-02-15T01:16:22;11.83;;;6.27;;
9138;SDS011;4604;48.616;9.548;2023-02-15T01:18:50;11.97;;;6.63;;
9138;SDS011;4604;48.616;9.548;2023-02-15T01:21:19;11.20;;;6.33;;
9138;SDS011;4604;48.616;9.548;2023-02-15T01:23:47;13.87;;;7.10;;
9138;SDS011;4604;48.616;9.548;2023-02-15T01:26:15;14.27;;;7.87;;
9138;SDS011;4604;48.616;9.548;2023-02-15T01:28:42;12.47;;;6.97;;
9138;SDS011;4604;48.616;9.548;2023-02-15T01:31:10;14.27;;;7.23;;
9138;SDS011;4604;48.616;9.548;2023-02-15T01:33:38;12.27;;;6.77;;
9138;SDS011;4604;48.616;9.548;2023-02-15T01:36:05;10.57;;;6.30;;
9138;SDS011;4604;48.616;9.548;2023-02-15T01:38:33;13.00;;;7.27;;
9138;SDS011;4604;48.616;9.548;2023-02-15T01:41:00;10.50;;;6.40;;
9138;SDS011;4604;48.616;9.548;2023-02-15T01:43:41;11.67;;;6.90;;
9138;SDS011;4604;48.616;9.548;2023-02-15T01:46:09;12.43;;;7.63;;
9138;SDS011;4604;48.616;9.548;2023-02-15T01:48:40;13.80;;;7.13;;
9138;SDS011;4604;48.616;9.548;2023-02-15T01:51:11;13.33;;;7.03;;
9138;SDS011;4604;48.616;9.548;2023-02-15T01:53:41;14.07;;;7.70;;
9138;SDS011;4604;48.616;9.548;2023-02-15T01:56:13;13.97;;;7.77;;
9138;SDS011;4604;48.616;9.548;2023-02-15T01:58:43;12.20;;;6.67;;
9138;SDS011;4604;48.616;9.548;2023-02-15T02:01:12;12.00;;;7.17;;
9138;SDS011;4604;48.616;9.548;2023-02-15T02:03:42;12.43;;;7.43;;
9138;SDS011;4604;48.616;9.548;2023-02-15T02:06:16;12.53;;;6.83;;
9138;SDS011;4604;48.616;9.548;2023-02-15T02:08:45;16.30;;;7.87;;
9138;SDS011;4604;48.616;9.548;2023-02-15T02:11:12;12.90;;;6.83;;
9138;SDS011;4604;48.616;9.548;2023-02-15T02:13:40;12.90;;;7.27;;
9138;SDS011;4604;48.616;9.548;2023-02-15T02:16:10;11.93;;;7.33;;
9138;SDS011;4604;48.616;9.548;2023-02-15T02:18:45;13.80;;;7.70;;
9138;SDS011;4604;48.616;9.548;2023-02-15T02:24:34;15.37;;;8.43;;
9138;SDS011;4604;48.616;9.548;2023-02-15T02:27:19;13.70;;;8.33;;
9138;SDS011;4604;48.616;9.548;2023-02-15T02:33:09;15.60;;;8.43;;
9138;SDS011;4604;48.616;9.548;2023-02-15T02:35:45;15.40;;;7.90;;
9138;SDS011;4604;48.616;9.548;2023-02-15T02:38:20;12.90;;;7.67;;
9138;SDS011;4604;48.616;9.548;2023-02-15T02:40:55;11.00;;;7.27;;
9138;SDS011;4604;48.616;9.548;2023-02-15T02:43:35;14.27;;;8.10;;
9138;SDS011;4604;48.616;9.548;2023-02-15T02:46:09;12.80;;;7.23;;
9138;SDS011;4604;48.616;9.548;2023-02-15T02:48:44;11.90;;;6.63;;
9138;SDS011;4604;48.616;9.548;2023-02-15T02:51:11;12.83;;;6.70;;
9138;SDS011;4604;48.616;9.548;2023-02-15T02:53:39;12.00;;;6.63;;
9138;SDS011;4604;48.616;9.548;2023-02-15T02:56:08;10.23;;;5.90;;
9138;SDS011;4604;48.616;9.548;2023-02-15T02:58:44;12.43;;;6.53;;
9138;SDS011;4604;48.616;9.548;2023-02-15T03:01:15;12.53;;;6.57;;
9138;SDS011;4604;48.616;9.548;2023-02-15T03:03:48;16.33;;;7.43;;
9138;SDS011;4604;48.616;9.548;2023-02-15T03:06:17;15.57;;;8.30;;
9138;SDS011;4604;48.616;9.548;2023-02-15T03:08:49;14.30;;;8.03;;
9138;SDS011;4604;48.616;9.548;2023-02-15T03:11:21;16.87;;;7.60;;
9138;SDS011;4604;48.616;9.548;2023-02-15T03:13:47;14.60;;;7.83;;
9138;SDS011;4604;48.616;9.548;2023-02-15T03:16:16;15.60;;;7.80;;
9138;SDS011;4604;48.616;9.548;2023-02-15T03:18:54;15.57;;;7.97;;
9138;SDS011;4604;48.616;9.548;2023-02-15T03:21:27;16.43;;;7.50;;
9138;SDS011;4604;48.616;9.548;2023-02-15T03:23:59;12.70;;;7.50;;
9138;SDS011;4604;48.616;9.548;2023-02-15T03:26:30;17.07;;;7.70;;
9138;SDS011;4604;48.616;9.548;2023-02-15T03:28:59;16.43;;;9.10;;
9138;SDS011;4604;48.616;9.548;2023-02-15T03:31:29;16.97;;;8.87;;
9138;SDS011;4604;48.616;9.548;2023-02-15T03:34:02;14.03;;;8.07;;
9138;SDS011;4604;48.616;9.548;2023-02-15T03:36:32;16.27;;;7.60;;
9138;SDS011;4604;48.616;9.548;2023-02-15T03:39:07;10.10;;;6.37;;
9138;SDS011;4604;48.616;9.548;2023-02-15T03:41:39;11.80;;;6.67;;
9138;SDS011;4604;48.616;9.548;2023-02-15T03:44:13;14.50;;;6.80;;
9138;SDS011;4604;48.616;9.548;2023-02-15T03:46:46;13.40;;;6.87;;
9138;SDS011;4604;48.616;9.548;2023-02-15T03:49:21;13.40;;;7.40;;
9138;SDS011;4604;48.616;9.548;2023-02-15T03:51:51;13.07;;;8.07;;
9138;SDS011;4604;48.616;9.548;2023-02-15T03:54:24;12.13;;;6.90;;
9138;SDS011;4604;48.616;9.548;2023-02-15T03:57:13;12.67;;;7.33;;
9138;SDS011;4604;48.616;9.548;2023-02-15T03:59:59;10.70;;;6.00;;
9138;SDS011;4604;48.616;9.548;2023-02-15T04:02:49;9.63;;;5.93;;
9138;SDS011;4604;48.616;9.548;2023-02-15T04:05:35;12.53;;;6.67;;
9138;SDS011;4604;48.616;9.548;2023-02-15T04:08:02;10.70;;;6.60;;
9138;SDS011;4604;48.616;9.548;2023-02-15T04:10:29;11.93;;;6.73;;
9138;SDS011;4604;48.616;9.548;2023-02-15T04:13:13;11.93;;;6.17;;
9138;SDS011;4604;48.616;9.548;2023-02-15T04:15:40;17.10;;;6.27;;
9138;SDS011;4604;48.616;9.548;2023-02-15T04:18:24;11.60;;;6.40;;
9138;SDS011;4604;48.616;9.548;2023-02-15T04:21:09;11.70;;;6.43;;
9138;SDS011;4604;48.616;9.548;2023-02-15T04:23:53;12.77;;;7.00;;
9138;SDS011;4604;48.616;9.548;2023-02-15T04:26:37;13.13;;;7.13;;
9138;SDS011;4604;48.616;9.548;2023-02-15T04:29:04;13.53;;;6.70;;
9138;SDS011;4604;48.616;9.548;2023-02-15T04:31:30;14.17;;;7.47;;
9138;SDS011;4604;48.616;9.548;2023-02-15T04:33:57;13.90;;;7.03;;
9138;SDS011;4604;48.616;9.548;2023-02-15T04:36:25;12.27;;;7.13;;
9138;SDS011;4604;48.616;9.548;2023-02-15T04:38:52;12.87;;;7.20;;
9138;SDS011;4604;48.616;9.548;2023-02-15T04:41:18;14.63;;;6.97;;
9138;SDS011;4604;48.616;9.548;2023-02-15T04:43:45;11.87;;;6.80;;
9138;SDS011;4604;48.616;9.548;2023-02-15T04:46:11;15.20;;;8.17;;
9138;SDS011;4604;48.616;9.548;2023-02-15T04:48:38;13.87;;;7.70;;
9138;SDS011;4604;48.616;9.548;2023-02-15T04:51:05;12.80;;;6.87;;
9138;SDS011;4604;48.616;9.548;2023-02-15T04:53:33;11.13;;;6.53;;
9138;SDS011;4604;48.616;9.548;2023-02-15T04:56:00;12.40;;;7.10;;
9138;SDS011;4604;48.616;9.548;2023-02-15T04:58:26;14.07;;;6.33;;
9138;SDS011;4604;48.616;9.548;2023-02-15T05:00:54;13.70;;;7.20;;
9138;SDS011;4604;48.616;9.548;2023-02-15T05:03:22;11.63;;;6.87;;
9138;SDS011;4604;48.616;9.548;2023-02-15T05:05:48;12.23;;;7.17;;
9138;SDS011;4604;48.616;9.548;2023-02-15T05:08:15;13.73;;;7.40;;
9138;SDS011;4604;48.616;9.548;2023-02-15T05:10:43;18.40;;;7.83;;
9138;SDS011;4604;48.616;9.548;2023-02-15T05:13:10;19.83;;;8.37;;
9138;SDS011;4604;48.616;9.548;2023-02-15T05:15:36;15.57;;;8.07;;
9138;SDS011;4604;48.616;9.548;2023-02-15T05:18:04;13.50;;;7.87;;
9138;SDS011;4604;48.616;9.548;2023-02-15T05:20:33;13.30;;;7.37;;
9138;SDS011;4604;48.616;9.548;2023-02-15T05:23:00;15.53;;;7.23;;
9138;SDS011;4604;48.616;9.548;2023-02-15T05:25:27;12.30;;;6.97;;
9138;SDS011;4604;48.616;9.548;2023-02-15T05:28:13;18.80;;;8.53;;
9138;SDS011;4604;48.616;9.548;2023-02-15T05:30:45;13.30;;;8.03;;
9138;SDS011;4604;48.616;9.548;2023-02-15T05:33:12;17.73;;;9.37;;
9138;SDS011;4604;48.616;9.548;2023-02-15T05:35:39;17.90;;;9.30;;
9138;SDS011;4604;48.616;9.548;2023-02-15T05:38:05;17.10;;;9.60;;
9138;SDS011;4604;48.616;9.548;2023-02-15T05:40:32;18.13;;;9.40;;
9138;SDS011;4604;48.616;9.548;2023-02-15T05:42:59;18.37;;;9.80;;
9138;SDS011;4604;48.616;9.548;2023-02-15T05:45:27;22.10;;;10.00;;
9138;SDS011;4604;48.616;9.548;2023-02-15T05:47:53;15.90;;;9.23;;
9138;SDS011;4604;48.616;9.548;2023-02-15T05:50:20;14.73;;;8.70;;
9138;SDS011;4604;48.616;9.548;2023-02-15T05:52:47;17.33;;;8.70;;
9138;SDS011;4604;48.616;9.548;2023-02-15T05:55:13;13.27;;;7.87;;
9138;SDS011;4604;48.616;9.548;2023-02-15T05:57:40;13.80;;;7.67;;
9138;SDS011;4604;48.616;9.548;2023-02-15T06:00:07;14.10;;;6.77;;
9138;SDS011;4604;48.616;9.548;2023-02-15T06:02:36;11.27;;;6.10;;
9138;SDS011;4604;48.616;9.548;2023-02-15T06:05:04;11.43;;;6.83;;
9138;SDS011;4604;48.616;9.548;2023-02-15T06:07:31;12.27;;;6.23;;
9138;SDS011;4604;48.616;9.548;2023-02-15T06:09:58;10.60;;;5.70;;
9138;SDS011;4604;48.616;9.548;2023-02-15T06:12:25;11.80;;;6.93;;
9138;SDS011;4604;48.616;9.548;2023-02-15T06:14:51;18.80;;;9.57;;
9138;SDS011;4604;48.616;9.548;2023-02-15T06:17:18;17.57;;;10.20;;
9138;SDS011;4604;48.616;9.548;2023-02-15T06:19:48;27.57;;;13.40;;
9138;SDS011;4604;48.616;9.548;2023-02-15T06:22:14;26.07;;;14.90;;
9138;SDS011;4604;48.616;9.548;2023-02-15T06:24:41;26.57;;;14.67;;
9138;SDS011;4604;48.616;9.548;2023-02-15T06:27:08;23.43;;;12.93;;
9138;SDS011;4604;48.616;9.548;2023-02-15T06:29:35;26.30;;;14.07;;
9138;SDS011;4604;48.616;9.548;2023-02-15T06:32:02;23.73;;;12.87;;
9138;SDS011;4604;48.616;9.548;2023-02-15T06:34:29;26.00;;;12.57;;
9138;SDS011;4604;48.616;9.548;2023-02-15T06:36:57;25.03;;;12.80;;
9138;SDS011;4604;48.616;9.548;2023-02-15T06:39:24;23.33;;;12.57;;
9138;SDS011;4604;48.616;9.548;2023-02-15T06:41:51;23.53;;;13.37;;
9138;SDS011;4604;48.616;9.548;2023-02-15T06:44:17;26.13;;;14.03;;
9138;SDS011;4604;48.616;9.548;2023-02-15T06:46:44;21.17;;;12.30;;
9138;SDS011;4604;48.616;9.548;2023-02-15T06:49:11;22.20;;;12.60;;
9138;SDS011;4604;48.616;9.548;2023-02-15T06:51:37;25.37;;;11.87;;
9138;SDS011;4604;48.616;9.548;2023-02-15T06:54:05;20.00;;;10.77;;
9138;SDS011;4604;48.616;9.548;2023-02-15T06:56:32;18.63;;;10.23;;
9138;SDS011;4604;48.616;9.548;2023-02-15T06:58:58;25.43;;;12.20;;
9138;SDS011;4604;48.616;9.548;2023-02-15T07:01:25;20.80;;;11.20;;
9138;SDS011;4604;48.616;9.548;2023-02-15T07:03:52;21.70;;;11.73;;
9138;SDS011;4604;48.616;9.548;2023-02-15T07:06:18;20.93;;;10.70;;
9138;SDS011;4604;48.616;9.548;2023-02-15T07:08:45;20.10;;;10.73;;
9138;SDS011;4604;48.616;9.548;2023-02-15T07:11:13;18.53;;;10.13;;
9138;SDS011;4604;48.616;9.548;2023-02-15T07:13:56;18.70;;;9.90;;
9138;SDS011;4604;48.616;9.548;2023-02-15T07:16:22;18.13;;;9.77;;
9138;SDS011;4604;48.616;9.548;2023-02-15T07:18:49;18.83;;;9.57;;
9138;SDS011;4604;48.616;9.548;2023-02-15T07:21:16;19.70;;;10.53;;
9138;SDS011;4604;48.616;9.548;2023-02-15T07:23:42;18.27;;;8.97;;
9138;SDS011;4604;48.616;9.548;2023-02-15T07:26:09;22.83;;;11.47;;
9138;SDS011;4604;48.616;9.548;2023-02-15T07:28:37;20.27;;;11.23;;
9138;SDS011;4604;48.616;9.548;2023-02-15T07:31:03;19.90;;;11.47;;
9138;SDS011;4604;48.616;9.548;2023-02-15T07:33:31;21.50;;;12.33;;
9138;SDS011;4604;48.616;9.548;2023-02-15T07:35:59;19.40;;;10.73;;
9138;SDS011;4604;48.616;9.548;2023-02-15T07:38:29;24.73;;;11.30;;
9138;SDS011;4604;48.616;9.548;2023-02-15T07:40:57;16.67;;;10.47;;
9138;SDS011;4604;48.616;9.548;2023-02-15T07:43:24;24.03;;;12.77;;
9138;SDS011;4604;48.616;9.548;2023-02-15T07:45:53;20.87;;;11.47;;
9138;SDS011;4604;48.616;9.548;2023-02-15T07:48:20;21.73;;;11.30;;
9138;SDS011;4604;48.616;9.548;2023-02-15T07:50:47;19.07;;;11.33;;
9138;SDS011;4604;48.616;9.548;2023-02-15T07:53:13;19.40;;;10.57;;
9138;SDS011;4604;48.616;9.548;2023-02-15T07:55:40;21.67;;;11.53;;
9138;SDS011;4604;48.616;9.548;2023-02-15T07:58:07;21.80;;;11.53;;
9138;SDS011;4604;48.616;9.548;2023-02-15T08:00:33;23.67;;;12.83;;
9138;SDS011;4604;48.616;9.548;2023-02-15T08:03:23;30.17;;;11.13;;
9138;SDS011;4604;48.616;9.548;2023-02-15T08:05:54;22.13;;;12.27;;
9138;SDS011;4604;48.616;9.548;2023-02-15T08:08:22;25.40;;;12.50;;
9138;SDS011;4604;48.616;9.548;2023-02-15T08:10:58;22.10;;;11.90;;
9138;SDS011;4604;48.616;9.548;2023-02-15T08:13:43;17.27;;;10.67;;
9138;SDS011;4604;48.616;9.548;2023-02-15T08:16:18;18.77;;;10.10;;
9138;SDS011;4604;48.616;9.548;2023-02-15T08:18:47;23.30;;;12.03;;
9138;SDS011;4604;48.616;9.548;2023-02-15T08:21:14;19.83;;;12.13;;
9138;SDS011;4604;48.616;9.548;2023-02-15T08:23:41;21.70;;;11.33;;
9138;SDS011;4604;48.616;9.548;2023-02-15T08:26:07;17.47;;;11.33;;
9138;SDS011;4604;48.616;9.548;2023-02-15T08:28:34;20.50;;;10.90;;
9138;SDS011;4604;48.616;9.548;2023-02-15T08:31:03;17.50;;;10.07;;
9138;SDS011;4604;48.616;9.548;2023-02-15T08:33:31;19.40;;;11.27;;
9138;SDS011;4604;48.616;9.548;2023-02-15T08:36:03;19.67;;;11.50;;
9138;SDS011;4604;48.616;9.548;2023-02-15T08:38:30;21.70;;;11.43;;
9138;SDS011;4604;48.616;9.548;2023-02-15T08:40:57;19.23;;;11.10;;
9138;SDS011;4604;48.616;9.548;2023-02-15T08:43:24;29.23;;;15.40;;
9138;SDS011;4604;48.616;9.548;2023-02-15T08:45:50;27.87;;;15.90;;
9138;SDS011;4604;48.616;9.548;2023-02-15T08:48:17;27.00;;;16.43;;
9138;SDS011;4604;48.616;9.548;2023-02-15T08:50:44;34.07;;;17.90;;
9138;SDS011;4604;48.616;9.548;2023-02-15T08:53:12;35.43;;;19.23;;
9138;SDS011;4604;48.616;9.548;2023-02-15T08:55:38;31.87;;;19.00;;
9138;SDS011;4604;48.616;9.548;2023-02-15T08:58:05;33.87;;;19.50;;
9138;SDS011;4604;48.616;9.548;2023-02-15T09:00:32;35.60;;;19.53;;
9138;SDS011;4604;48.616;9.548;2023-02-15T09:02:59;35.17;;;20.30;;
9138;SDS011;4604;48.616;9.548;2023-02-15T09:05:25;30.97;;;19.33;;
9138;SDS011;4604;48.616;9.548;2023-02-15T09:07:52;39.27;;;21.37;;
9138;SDS011;4604;48.616;9.548;2023-02-15T09:10:20;35.00;;;19.83;;
9138;SDS011;4604;48.616;9.548;2023-02-15T09:12:46;33.47;;;19.10;;
9138;SDS011;4604;48.616;9.548;2023-02-15T09:15:15;40.50;;;22.50;;
9138;SDS011;4604;48.616;9.548;2023-02-15T09:17:41;36.90;;;18.60;;
9138;SDS011;4604;48.616;9.548;2023-02-15T09:20:08;28.13;;;16.73;;
9138;SDS011;4604;48.616;9.548;2023-02-15T09:22:35;27.20;;;15.53;;
9138;SDS011;4604;48.616;9.548;2023-02-15T09:25:02;31.23;;;15.90;;
9138;SDS011;4604;48.616;9.548;2023-02-15T09:27:30;29.47;;;15.10;;
9138;SDS011;4604;48.616;9.548;2023-02-15T09:29:57;23.57;;;13.40;;
9138;SDS011;4604;48.616;9.548;2023-02-15T09:32:24;22.67;;;14.23;;
9138;SDS011;4604;48.616;9.548;2023-02-15T09:34:51;23.97;;;14.37;;
9138;SDS011;4604;48.616;9.548;2023-02-15T09:37:17;25.37;;;15.10;;
9138;SDS011;4604;48.616;9.548;2023-02-15T09:39:44;28.13;;;15.57;;
9138;SDS011;4604;48.616;9.548;2023-02-15T09:42:16;22.67;;;14.00;;
9138;SDS011;4604;48.616;9.548;2023-02-15T09:45:09;26.77;;;16.50;;
9138;SDS011;4604;48.616;9.548;2023-02-15T09:47:54;33.03;;;17.37;;
9138;SDS011;4604;48.616;9.548;2023-02-15T09:50:42;35.43;;;18.43;;
9138;SDS011;4604;48.616;9.548;2023-02-15T09:53:25;27.03;;;15.27;;
9138;SDS011;4604;48.616;9.548;2023-02-15T09:55:59;27.17;;;15.20;;
9138;SDS011;4604;48.616;9.548;2023-02-15T09:58:34;24.43;;;15.37;;
9138;SDS011;4604;48.616;9.548;2023-02-15T10:01:14;24.33;;;14.57;;
9138;SDS011;4604;48.616;9.548;2023-02-15T10:03:50;26.97;;;15.53;;
9138;SDS011;4604;48.616;9.548;2023-02-15T10:06:28;28.17;;;16.27;;
9138;SDS011;4604;48.616;9.548;2023-02-15T10:12:05;28.10;;;15.47;;
9138;SDS011;4604;48.616;9.548;2023-02-15T10:14:46;26.53;;;15.13;;
9138;SDS011;4604;48.616;9.548;2023-02-15T10:17:29;31.10;;;17.17;;
9138;SDS011;4604;48.616;9.548;2023-02-15T10:20:11;25.90;;;14.83;;
9138;SDS011;4604;48.616;9.548;2023-02-15T10:22:50;24.80;;;14.60;;
9138;SDS011;4604;48.616;9.548;2023-02-15T10:25:31;27.27;;;16.07;;
9138;SDS011;4604;48.616;9.548;2023-02-15T10:28:09;27.90;;;16.00;;
9138;SDS011;4604;48.616;9.548;2023-02-15T10:30:42;26.43;;;15.87;;
9138;SDS011;4604;48.616;9.548;2023-02-15T10:33:16;25.00;;;16.20;;
9138;SDS011;4604;48.616;9.548;2023-02-15T10:36:03;27.57;;;16.60;;
9138;SDS011;4604;48.616;9.548;2023-02-15T10:38:39;25.27;;;15.20;;
9138;SDS011;4604;48.616;9.548;2023-02-15T10:41:12;24.27;;;14.90;;
9138;SDS011;4604;48.616;9.548;2023-02-15T10:43:58;25.57;;;14.63;;
9138;SDS011;4604;48.616;9.548;2023-02-15T10:46:40;28.17;;;15.93;;
9138;SDS011;4604;48.616;9.548;2023-02-15T10:52:29;31.67;;;16.00;;
9138;SDS011;4604;48.616;9.548;2023-02-15T10:55:07;27.83;;;16.40;;
9138;SDS011;4604;48.616;9.548;2023-02-15T10:57:44;23.80;;;15.13;;
9138;SDS011;4604;48.616;9.548;2023-02-15T11:00:23;25.50;;;15.47;;
9138;SDS011;4604;48.616;9.548;2023-02-15T11:03:10;24.13;;;14.77;;
9138;SDS011;4604;48.616;9.548;2023-02-15T11:06:02;26.57;;;14.13;;
9138;SDS011;4604;48.616;9.548;2023-02-15T11:08:32;25.97;;;15.20;;
9138;SDS011;4604;48.616;9.548;2023-02-15T11:11:03;25.63;;;15.43;;
9138;SDS011;4604;48.616;9.548;2023-02-15T11:13:35;24.00;;;14.70;;
9138;SDS011;4604;48.616;9.548;2023-02-15T11:16:05;23.50;;;14.73;;
9138;SDS011;4604;48.616;9.548;2023-02-15T11:18:38;24.30;;;14.80;;
9138;SDS011;4604;48.616;9.548;2023-02-15T11:21:11;25.57;;;15.27;;
9138;SDS011;4604;48.616;9.548;2023-02-15T11:23:44;24.23;;;15.23;;
9138;SDS011;4604;48.616;9.548;2023-02-15T11:26:13;24.20;;;14.23;;
9138;SDS011;4604;48.616;9.548;2023-02-15T11:28:45;25.17;;;14.67;;
9138;SDS011;4604;48.616;9.548;2023-02-15T11:31:17;24.37;;;14.70;;
9138;SDS011;4604;48.616;9.548;2023-02-15T11:33:46;23.53;;;14.63;;
9138;SDS011;4604;48.616;9.548;2023-02-15T11:36:19;26.67;;;14.57;;
9138;SDS011;4604;48.616;9.548;2023-02-15T11:38:49;24.77;;;15.13;;
9138;SDS011;4604;48.616;9.548;2023-02-15T11:41:21;22.47;;;15.57;;
9138;SDS011;4604;48.616;9.548;2023-02-15T11:43:54;23.13;;;15.13;;
9138;SDS011;4604;48.616;9.548;2023-02-15T11:46:26;26.13;;;16.23;;
9138;SDS011;4604;48.616;9.548;2023-02-15T11:48:53;23.20;;;14.27;;
9138;SDS011;4604;48.616;9.548;2023-02-15T11:51:22;23.80;;;14.53;;
9138;SDS011;4604;48.616;9.548;2023-02-15T11:53:49;25.77;;;14.83;;
9138;SDS011;4604;48.616;9.548;2023-02-15T11:56:16;26.40;;;15.30;;
9138;SDS011;4604;48.616;9.548;2023-02-15T11:58:47;23.30;;;15.00;;
9138;SDS011;4604;48.616;9.548;2023-02-15T12:01:20;24.97;;;16.10;;
9138;SDS011;4604;48.616;9.548;2023-02-15T12:03:51;31.57;;;15.50;;
9138;SDS011;4604;48.616;9.548;2023-02-15T12:06:23;27.97;;;14.60;;
9138;SDS011;4604;48.616;9.548;2023-02-15T12:08:55;25.33;;;15.20;;
9138;SDS011;4604;48.616;9.548;2023-02-15T12:11:28;25.33;;;14.80;;
9138;SDS011;4604;48.616;9.548;2023-02-15T12:14:00;22.40;;;14.03;;
9138;SDS011;4604;48.616;9.548;2023-02-15T12:16:27;24.37;;;14.30;;
9138;SDS011;4604;48.616;9.548;2023-02-15T12:18:58;21.47;;;13.50;;
9138;SDS011;4604;48.616;9.548;2023-02-15T12:21:29;19.67;;;13.90;;
9138;SDS011;4604;48.616;9.548;2023-02-15T12:24:00;21.00;;;13.83;;
9138;SDS011;4604;48.616;9.548;2023-02-15T12:26:30;21.33;;;12.87;;
9138;SDS011;4604;48.616;9.548;2023-02-15T12:28:58;20.53;;;12.73;;
9138;SDS011;4604;48.616;9.548;2023-02-15T12:31:28;19.57;;;12.30;;
9138;SDS011;4604;48.616;9.548;2023-02-15T12:33:59;18.23;;;13.10;;
9138;SDS011;4604;48.616;9.548;2023-02-15T12:36:30;17.83;;;11.97;;
9138;SDS011;4604;48.616;9.548;2023-02-15T12:39:02;20.23;;;12.00;;
9138;SDS011;4604;48.616;9.548;2023-02-15T12:41:31;21.43;;;13.20;;
9138;SDS011;4604;48.616;9.548;2023-02-15T12:44:05;21.43;;;12.43;;
9138;SDS011;4604;48.616;9.548;2023-02-15T12:46:34;20.03;;;12.43;;
9138;SDS011;4604;48.616;9.548;2023-02-15T12:49:10;21.37;;;12.07;;
9138;SDS011;4604;48.616;9.548;2023-02-15T12:51:44;17.07;;;10.33;;
9138;SDS011;4604;48.616;9.548;2023-02-15T12:54:16;16.57;;;10.77;;
9138;SDS011;4604;48.616;9.548;2023-02-15T12:56:51;15.50;;;10.27;;
9138;SDS011;4604;48.616;9.548;2023-02-15T12:59:18;15.03;;;9.80;;
9138;SDS011;4604;48.616;9.548;2023-02-15T13:01:46;13.40;;;8.60;;
9138;SDS011;4604;48.616;9.548;2023-02-15T13:04:15;14.37;;;9.60;;
9138;SDS011;4604;48.616;9.548;2023-02-15T13:06:49;14.13;;;9.00;;
9138;SDS011;4604;48.616;9.548;2023-02-15T13:09:19;15.47;;;9.57;;
9138;SDS011;4604;48.616;9.548;2023-02-15T13:11:51;15.70;;;9.13;;
9138;SDS011;4604;48.616;9.548;2023-02-15T13:14:18;15.77;;;9.53;;
9138;SDS011;4604;48.616;9.548;2023-02-15T13:16:47;16.30;;;10.07;;
9138;SDS011;4604;48.616;9.548;2023-02-15T13:19:17;14.30;;;9.57;;
9138;SDS011;4604;48.616;9.548;2023-02-15T13:21:51;14.90;;;9.03;;
9138;SDS011;4604;48.616;9.548;2023-02-15T13:24:20;14.37;;;8.90;;
9138;SDS011;4604;48.616;9.548;2023-02-15T13:26:49;14.10;;;8.80;;
9138;SDS011;4604;48.616;9.548;2023-02-15T13:29:20;15.03;;;9.83;;
9138;SDS011;4604;48.616;9.548;2023-02-15T13:31:49;17.00;;;9.83;;
9138;SDS011;4604;48.616;9.548;2023-02-15T13:34:18;17.07;;;8.93;;
9138;SDS011;4604;48.616;9.548;2023-02-15T13:36:51;13.67;;;8.50;;
9138;SDS011;4604;48.616;9.548;2023-02-15T13:39:26;13.53;;;8.13;;
9138;SDS011;4604;48.616;9.548;2023-02-15T13:42:01;14.70;;;8.67;;
9138;SDS011;4604;48.616;9.548;2023-02-15T13:44:49;13.40;;;9.03;;
9138;SDS011;4604;48.616;9.548;2023-02-15T13:47:30;13.50;;;8.73;;
9138;SDS011;4604;48.616;9.548;2023-02-15T13:50:07;14.20;;;8.90;;
9138;SDS011;4604;48.616;9.548;2023-02-15T13:52:50;12.80;;;8.30;;
9138;SDS011;4604;48.616;9.548;2023-02-15T13:55:29;12.03;;;8.07;;
9138;SDS011;4604;48.616;9.548;2023-02-15T13:58:10;12.13;;;8.27;;
9138;SDS011;4604;48.616;9.548;2023-02-15T14:00:47;12.47;;;8.07;;
9138;SDS011;4604;48.616;9.548;2023-02-15T14:06:13;10.77;;;7.40;;
9138;SDS011;4604;48.616;9.548;2023-02-15T14:08:55;13.67;;;7.80;;
9138;SDS011;4604;48.616;9.548;2023-02-15T14:11:32;14.30;;;8.03;;
9138;SDS011;4604;48.616;9.548;2023-02-15T14:14:11;10.80;;;7.17;;
9138;SDS011;4604;48.616;9.548;2023-02-15T14:16:59;13.20;;;7.43;;
9138;SDS011;4604;48.616;9.548;2023-02-15T14:19:35;11.60;;;7.60;;
9138;SDS011;4604;48.616;9.548;2023-02-15T14:22:13;10.83;;;7.03;;
9138;SDS011;4604;48.616;9.548;2023-02-15T14:24:50;13.23;;;7.07;;
9138;SDS011;4604;48.616;9.548;2023-02-15T14:27:36;13.43;;;6.53;;
9138;SDS011;4604;48.616;9.548;2023-02-15T14:30:13;9.47;;;6.60;;
9138;SDS011;4604;48.616;9.548;2023-02-15T14:32:45;11.33;;;6.47;;
9138;SDS011;4604;48.616;9.548;2023-02-15T14:35:16;10.37;;;6.50;;
9138;SDS011;4604;48.616;9.548;2023-02-15T14:37:46;12.43;;;6.30;;
9138;SDS011;4604;48.616;9.548;2023-02-15T14:40:23;9.47;;;6.00;;
9138;SDS011;4604;48.616;9.548;2023-02-15T14:43:32;9.20;;;6.27;;
9138;SDS011;4604;48.616;9.548;2023-02-15T14:46:07;9.90;;;6.03;;
9138;SDS011;4604;48.616;9.548;2023-02-15T14:48:42;8.60;;;6.27;;
9138;SDS011;4604;48.616;9.548;2023-02-15T14:54:52;10.57;;;6.70;;
9138;SDS011;4604;48.616;9.548;2023-02-15T14:57:24;10.07;;;6.27;;
9138;SDS011;4604;48.616;9.548;2023-02-15T14:59:57;8.70;;;5.67;;
9138;SDS011;4604;48.616;9.548;2023-02-15T15:02:29;8.50;;;6.20;;
9138;SDS011;4604;48.616;9.548;2023-02-15T15:05:09;13.90;;;6.57;;
9138;SDS011;4604;48.616;9.548;2023-02-15T15:07:43;9.47;;;6.17;;
9138;SDS011;4604;48.616;9.548;2023-02-15T15:16:46;7.87;;;4.63;;
9138;SDS011;4604;48.616;9.548;2023-02-15T15:22:32;8.87;;;5.73;;
9138;SDS011;4604;48.616;9.548;2023-02-15T15:25:00;12.33;;;7.03;;
9138;SDS011;4604;48.616;9.548;2023-02-15T15:36:50;11.17;;;7.07;;
9138;SDS011;4604;48.616;9.548;2023-02-15T15:40:01;11.03;;;6.97;;
9138;SDS011;4604;48.616;9.548;2023-02-15T15:42:57;10.90;;;6.47;;
9138;SDS011;4604;48.616;9.548;2023-02-15T15:45:53;11.30;;;5.50;;
9138;SDS011;4604;48.616;9.548;2023-02-15T15:48:30;6.93;;;4.77;;
9138;SDS011;4604;48.616;9.548;2023-02-15T15:51:00;8.37;;;5.10;;
9138;SDS011;4604;48.616;9.548;2023-02-15T15:53:34;7.67;;;4.57;;
9138;SDS011;4604;48.616;9.548;2023-02-15T15:56:08;5.57;;;3.80;;
9138;SDS011;4604;48.616;9.548;2023-02-15T15:58:41;6.73;;;4.40;;
9138;SDS011;4604;48.616;9.548;2023-02-15T16:01:10;7.90;;;5.00;;